Myra, West Virginia
Current Conditions -  °F | °C
As of 6:51 PM on Sunday 21 Dec 2014 (Local Time) from KHTS Reporting Station
Clear Clear  
Wind Chill: 33°   Ceiling: Unl
Heat Index: 37°   Visibility: 10mi
Dew Point: 26°   Wind: 5mph
Humidity: 65%   Direction: 50°NE
Pressure: 30.17"   Gusts: NA
Location:  38.22°N, 82.11°W
Report Text: KHTS 212351Z 05004KT 10SM CLR 03/M03 A3017 RMK AO2 SLP221 T00281033 10061 20028 58001
Loading
Personal Weather Stations






























Interactive Weather Map New forecast layout! Learn more

10-Day Weather Forecast

Advertisements
Track Severe Weather on mobile